createdAt,value
2019-01-11T00:00:51.708Z,10.47
2019-01-11T00:03:20.533Z,10.53
2019-01-11T00:05:49.337Z,11.00
2019-01-11T00:08:18.188Z,11.37
2019-01-11T00:10:47.050Z,10.53
2019-01-11T00:13:15.861Z,9.40
2019-01-11T00:15:44.651Z,10.33
2019-01-11T00:18:13.513Z,10.37
2019-01-11T00:20:42.248Z,10.50
2019-01-11T00:23:11.070Z,10.33
2019-01-11T00:25:39.797Z,10.80
2019-01-11T00:28:08.553Z,10.67
2019-01-11T00:30:37.377Z,11.43
2019-01-11T00:33:06.185Z,11.33
2019-01-11T00:35:35.071Z,10.93
2019-01-11T00:38:03.952Z,11.07
2019-01-11T00:40:32.674Z,11.10
2019-01-11T00:43:01.405Z,11.23
2019-01-11T00:45:30.185Z,10.90
2019-01-11T00:47:58.934Z,11.53
2019-01-11T00:50:27.675Z,11.50
2019-01-11T00:52:56.428Z,12.07
2019-01-11T00:55:25.198Z,10.77
2019-01-11T00:57:53.929Z,11.00
2019-01-11T01:00:24.114Z,10.57
2019-01-11T01:02:52.937Z,11.10
2019-01-11T01:05:22.023Z,10.93
2019-01-11T01:07:51.250Z,11.50
2019-01-11T01:10:23.755Z,10.63
2019-01-11T01:12:52.528Z,12.47
2019-01-11T01:15:21.525Z,11.53
2019-01-11T01:17:50.369Z,12.20
2019-01-11T01:20:19.149Z,11.87
2019-01-11T01:22:48.055Z,12.83
2019-01-11T01:25:17.373Z,11.60
2019-01-11T01:27:46.254Z,12.30
2019-01-11T01:30:16.608Z,10.77
2019-01-11T01:32:45.606Z,11.83
2019-01-11T01:35:14.520Z,11.83
2019-01-11T01:37:43.730Z,10.23
2019-01-11T01:40:13.254Z,11.20
2019-01-11T01:42:42.061Z,10.63
2019-01-11T01:45:12.836Z,10.70
2019-01-11T01:47:41.662Z,11.03
2019-01-11T01:50:11.053Z,12.33
2019-01-11T01:52:39.873Z,12.03
2019-01-11T01:55:09.839Z,10.53
2019-01-11T01:57:38.659Z,11.67
2019-01-11T02:00:10.338Z,12.43
2019-01-11T02:02:39.111Z,12.73
2019-01-11T02:05:08.697Z,11.77
2019-01-11T02:07:37.658Z,13.40
2019-01-11T02:10:08.029Z,13.03
2019-01-11T02:12:36.945Z,13.23
2019-01-11T02:15:06.554Z,12.57
2019-01-11T02:17:35.505Z,11.97
2019-01-11T02:20:06.462Z,13.50
2019-01-11T02:22:35.286Z,14.77
2019-01-11T02:25:04.741Z,14.43
2019-01-11T02:27:33.550Z,13.63
2019-01-11T02:30:02.389Z,14.97
2019-01-11T02:32:31.287Z,14.27
2019-01-11T02:35:00.158Z,14.37
2019-01-11T02:37:28.930Z,15.00
2019-01-11T02:39:57.684Z,13.63
2019-01-11T02:42:26.502Z,14.63
2019-01-11T02:44:55.302Z,13.87
2019-01-11T02:47:24.097Z,15.63
2019-01-11T02:49:52.815Z,14.93
2019-01-11T02:52:21.573Z,16.07
2019-01-11T02:54:50.277Z,16.00
2019-01-11T02:57:19.005Z,15.40
2019-01-11T02:59:47.774Z,16.07
2019-01-11T03:02:16.575Z,16.37
2019-01-11T03:04:45.298Z,16.57
2019-01-11T03:07:14.106Z,16.73
2019-01-11T03:09:42.829Z,16.87
2019-01-11T03:12:11.561Z,16.47
2019-01-11T03:14:40.397Z,18.47
2019-01-11T03:17:09.191Z,16.77
2019-01-11T03:19:37.991Z,16.50
2019-01-11T03:22:06.845Z,17.80
2019-01-11T03:24:35.585Z,16.63
2019-01-11T03:27:04.481Z,16.60
2019-01-11T03:29:34.674Z,16.67
2019-01-11T03:32:03.659Z,17.03
2019-01-11T03:34:34.087Z,16.70
2019-01-11T03:37:02.869Z,17.27
2019-01-11T03:39:31.597Z,18.13
2019-01-11T03:42:25.586Z,17.30
2019-01-11T03:44:54.338Z,17.13
2019-01-11T03:47:23.034Z,16.80
2019-01-11T03:49:55.033Z,16.70
2019-01-11T03:52:22.351Z,17.77
2019-01-11T03:54:51.064Z,17.83
2019-01-11T03:57:19.881Z,17.67
2019-01-11T03:59:48.591Z,16.63
2019-01-11T04:02:17.450Z,17.10
2019-01-11T04:04:46.254Z,16.37
2019-01-11T04:07:14.989Z,16.50
2019-01-11T04:09:43.777Z,16.67
2019-01-11T04:12:12.530Z,16.77
2019-01-11T04:14:41.247Z,15.87
2019-01-11T04:17:10.005Z,15.37
2019-01-11T04:19:38.742Z,17.73
2019-01-11T04:22:13.889Z,16.00
2019-01-11T04:25:00.743Z,16.43
2019-01-11T04:27:29.562Z,15.97
2019-01-11T04:29:58.361Z,16.27
2019-01-11T04:32:27.146Z,14.80
2019-01-11T04:34:55.889Z,14.97
2019-01-11T04:37:24.709Z,14.47
2019-01-11T04:39:53.549Z,16.63
2019-01-11T04:42:22.356Z,14.77
2019-01-11T04:44:51.094Z,13.57
2019-01-11T04:47:19.939Z,12.83
2019-01-11T04:49:48.683Z,14.90
2019-01-11T04:52:17.471Z,13.70
2019-01-11T04:54:46.211Z,13.27
2019-01-11T04:57:15.014Z,12.07
2019-01-11T04:59:43.802Z,12.23
2019-01-11T05:02:13.475Z,11.77
2019-01-11T05:04:42.403Z,12.10
2019-01-11T05:07:11.602Z,11.33
2019-01-11T05:09:40.606Z,12.57
2019-01-11T05:12:09.332Z,11.27
2019-01-11T05:14:38.149Z,10.43
2019-01-11T05:17:07.077Z,10.70
2019-01-11T05:19:35.951Z,11.97
2019-01-11T05:22:04.946Z,11.10
2019-01-11T05:24:33.727Z,9.17
2019-01-11T05:27:02.623Z,10.00
2019-01-11T05:29:31.384Z,10.00
2019-01-11T05:32:00.153Z,9.57
2019-01-11T05:34:29.005Z,9.37
2019-01-11T05:36:57.962Z,8.40
2019-01-11T05:39:26.700Z,8.73
2019-01-11T05:41:55.456Z,8.30
2019-01-11T05:44:24.197Z,8.27
2019-01-11T05:46:52.938Z,8.03
2019-01-11T05:49:21.702Z,8.47
2019-01-11T05:51:50.504Z,8.53
2019-01-11T05:54:19.309Z,6.60
2019-01-11T05:56:48.115Z,7.43
2019-01-11T05:59:16.878Z,8.83
2019-01-11T06:01:45.620Z,7.27
2019-01-11T06:04:32.553Z,6.73
2019-01-11T06:07:20.497Z,6.37
2019-01-11T06:09:49.298Z,6.37
2019-01-11T06:12:18.105Z,6.57
2019-01-11T06:14:46.935Z,6.87
2019-01-11T06:17:15.941Z,6.87
2019-01-11T06:19:44.767Z,6.10
2019-01-11T06:22:14.493Z,6.50
2019-01-11T06:24:43.251Z,6.27
2019-01-11T06:27:11.973Z,6.47
2019-01-11T06:29:41.438Z,5.90
2019-01-11T06:32:10.278Z,5.10
2019-01-11T06:34:39.124Z,5.73
2019-01-11T06:37:08.037Z,6.50
2019-01-11T06:39:36.909Z,6.00
2019-01-11T06:42:18.566Z,5.80
2019-01-11T06:44:47.289Z,5.97
2019-01-11T06:47:17.664Z,6.77
2019-01-11T06:49:46.697Z,6.33
2019-01-11T06:52:15.474Z,6.70
2019-01-11T06:54:44.174Z,6.63
2019-01-11T06:57:12.998Z,5.97
2019-01-11T06:59:41.760Z,6.90
2019-01-11T07:02:10.590Z,6.77
2019-01-11T07:04:39.489Z,6.27
2019-01-11T07:07:08.215Z,6.57
2019-01-11T07:09:36.965Z,5.90
2019-01-11T07:12:05.922Z,5.70
2019-01-11T07:14:36.197Z,7.10
2019-01-11T07:17:06.225Z,6.30
2019-01-11T07:19:35.087Z,6.90
2019-01-11T07:22:04.166Z,6.80
2019-01-11T07:24:33.040Z,7.23
2019-01-11T07:27:01.778Z,7.40
2019-01-11T07:29:30.593Z,7.90
2019-01-11T07:32:01.349Z,7.00
2019-01-11T07:34:30.277Z,7.40
2019-01-11T07:37:00.381Z,6.73
2019-01-11T07:39:32.754Z,7.07
2019-01-11T07:42:01.672Z,7.03
2019-01-11T07:44:30.405Z,6.50
2019-01-11T07:47:00.001Z,6.43
2019-01-11T07:49:28.829Z,6.17
2019-01-11T07:51:57.737Z,6.83
2019-01-11T07:54:26.454Z,7.20
2019-01-11T07:56:55.218Z,6.50
2019-01-11T07:59:24.048Z,7.40
2019-01-11T08:01:52.932Z,6.33
2019-01-11T08:04:21.657Z,5.70
2019-01-11T08:06:50.456Z,7.43
2019-01-11T08:09:19.454Z,5.93
2019-01-11T08:11:48.235Z,6.70
2019-01-11T08:14:16.936Z,5.67
2019-01-11T08:16:45.743Z,6.20
2019-01-11T08:19:15.089Z,5.77
2019-01-11T08:21:43.922Z,6.07
2019-01-11T08:24:12.712Z,6.53
2019-01-11T08:26:41.519Z,5.97
2019-01-11T08:29:10.293Z,6.00
2019-01-11T08:31:39.331Z,6.13
2019-01-11T08:34:08.081Z,5.57
2019-01-11T08:36:36.893Z,5.67
2019-01-11T08:39:08.238Z,5.27
2019-01-11T08:41:37.853Z,5.63
2019-01-11T08:44:06.957Z,5.77
2019-01-11T08:46:35.843Z,5.10
2019-01-11T08:49:04.713Z,6.47
2019-01-11T08:51:33.634Z,6.73
2019-01-11T08:54:02.606Z,6.33
2019-01-11T08:56:31.400Z,5.50
2019-01-11T08:59:00.133Z,5.20
2019-01-11T09:01:28.882Z,5.07
2019-01-11T09:03:57.642Z,5.97
2019-01-11T09:06:26.385Z,5.37
2019-01-11T09:08:55.093Z,4.57
2019-01-11T09:11:23.896Z,4.93
2019-01-11T09:13:52.598Z,4.57
2019-01-11T09:16:21.403Z,3.93
2019-01-11T09:19:01.638Z,4.60
2019-01-11T09:21:30.915Z,4.07
2019-01-11T09:23:59.705Z,4.47
2019-01-11T09:26:28.441Z,3.37
2019-01-11T09:28:57.158Z,3.23
2019-01-11T09:31:25.890Z,3.30
2019-01-11T09:33:54.657Z,3.63
2019-01-11T09:36:23.481Z,3.00
2019-01-11T09:38:52.257Z,3.00
2019-01-11T09:41:21.099Z,2.57
2019-01-11T09:43:49.960Z,3.00
2019-01-11T09:46:18.665Z,2.60
2019-01-11T09:48:47.411Z,2.17
2019-01-11T09:51:16.226Z,2.40
2019-01-11T09:53:44.927Z,2.40
2019-01-11T09:56:13.718Z,2.27
2019-01-11T09:58:42.524Z,3.00
2019-01-11T10:01:11.309Z,1.93
2019-01-11T10:03:40.048Z,2.10
2019-01-11T10:06:08.754Z,1.87
2019-01-11T10:08:37.733Z,2.17
2019-01-11T10:11:06.554Z,1.93
2019-01-11T10:13:35.329Z,2.23
2019-01-11T10:16:04.333Z,2.10
2019-01-11T10:18:33.186Z,2.63
2019-01-11T10:21:01.989Z,2.27
2019-01-11T10:23:30.697Z,2.37
2019-01-11T10:25:59.453Z,3.23
2019-01-11T10:28:28.170Z,2.57
2019-01-11T10:31:00.646Z,2.33
2019-01-11T10:33:27.638Z,2.83
2019-01-11T10:35:56.409Z,3.03
2019-01-11T10:38:25.138Z,2.50
2019-01-11T10:40:53.891Z,2.47
2019-01-11T10:43:22.661Z,2.73
2019-01-11T10:45:51.402Z,2.67
2019-01-11T10:48:20.138Z,2.63
2019-01-11T10:50:50.394Z,2.50
2019-01-11T10:53:19.213Z,2.43
2019-01-11T10:55:47.968Z,2.70
2019-01-11T10:58:18.006Z,2.37
2019-01-11T11:00:47.156Z,2.00
2019-01-11T11:03:15.894Z,1.80
2019-01-11T11:05:44.685Z,1.80
2019-01-11T11:08:13.617Z,2.30
2019-01-11T11:10:42.689Z,2.03
2019-01-11T11:13:11.465Z,1.73
2019-01-11T11:15:45.322Z,2.20
2019-01-11T11:18:14.203Z,1.87
2019-01-11T11:20:42.913Z,1.93
2019-01-11T11:23:11.643Z,2.33
2019-01-11T11:25:40.485Z,2.23
2019-01-11T11:28:29.194Z,2.13
2019-01-11T11:30:58.074Z,2.00
2019-01-11T11:33:26.803Z,1.97
2019-01-11T11:35:55.519Z,1.70
2019-01-11T11:38:24.343Z,1.73
2019-01-11T11:40:53.179Z,2.17
2019-01-11T11:43:22.270Z,1.33
2019-01-11T11:45:51.220Z,1.67
2019-01-11T11:48:19.968Z,1.50
2019-01-11T11:50:48.749Z,1.53
2019-01-11T11:53:17.558Z,2.10
2019-01-11T11:55:46.438Z,2.20
2019-01-11T11:58:15.260Z,2.20
2019-01-11T12:00:45.744Z,1.90
2019-01-11T12:03:14.633Z,2.60
2019-01-11T12:05:43.343Z,1.93
2019-01-11T12:08:12.278Z,2.50
2019-01-11T12:10:41.131Z,1.87
2019-01-11T12:13:09.858Z,2.67
2019-01-11T12:15:38.678Z,2.50
2019-01-11T12:18:07.517Z,2.43
2019-01-11T12:20:36.525Z,2.03
2019-01-11T12:23:05.337Z,2.30
2019-01-11T12:25:34.161Z,2.20
2019-01-11T12:28:02.924Z,2.23
2019-01-11T12:30:32.947Z,1.80
2019-01-11T12:33:01.722Z,2.10
2019-01-11T12:35:30.438Z,1.70
2019-01-11T12:37:59.239Z,2.17
2019-01-11T12:40:27.953Z,2.00
2019-01-11T12:42:58.015Z,2.00
2019-01-11T12:45:26.878Z,2.00
2019-01-11T12:47:55.651Z,1.63
2019-01-11T12:50:26.295Z,2.00
2019-01-11T12:52:55.062Z,1.70
2019-01-11T12:55:23.833Z,1.80
2019-01-11T12:57:52.590Z,1.60
2019-01-11T13:00:21.409Z,1.33
2019-01-11T13:02:50.379Z,1.83
2019-01-11T13:05:21.013Z,1.57
2019-01-11T13:07:49.841Z,1.40
2019-01-11T13:10:19.941Z,1.47
2019-01-11T13:12:48.981Z,1.20
2019-01-11T13:15:20.077Z,2.30
2019-01-11T13:17:50.593Z,1.33
2019-01-11T13:20:23.205Z,2.13
2019-01-11T13:22:52.298Z,1.70
2019-01-11T13:25:21.147Z,1.47
2019-01-11T13:27:50.052Z,1.57
2019-01-11T13:30:24.993Z,1.50
2019-01-11T13:32:54.017Z,1.60
2019-01-11T13:35:24.330Z,1.80
2019-01-11T13:37:53.383Z,1.67
2019-01-11T13:40:24.178Z,2.00
2019-01-11T13:42:55.492Z,1.90
2019-01-11T13:46:03.174Z,2.20
2019-01-11T13:48:40.074Z,3.83
2019-01-11T13:51:09.122Z,4.67
2019-01-11T13:53:37.961Z,4.37
2019-01-11T13:56:06.765Z,2.93
2019-01-11T13:58:35.571Z,2.53
2019-01-11T14:01:05.265Z,2.30
2019-01-11T14:03:33.981Z,2.07
2019-01-11T14:06:02.813Z,1.73
2019-01-11T14:08:32.817Z,2.20
2019-01-11T14:11:01.561Z,1.67
2019-01-11T14:13:30.292Z,2.60
2019-01-11T14:15:59.007Z,2.00
2019-01-11T14:18:27.738Z,2.60
2019-01-11T14:20:56.585Z,2.00
2019-01-11T14:23:25.282Z,2.90
2019-01-11T14:25:54.005Z,1.80
2019-01-11T14:28:22.741Z,2.07
2019-01-11T14:30:51.625Z,2.33
2019-01-11T14:33:20.421Z,2.43
2019-01-11T14:35:49.272Z,1.90
2019-01-11T14:38:18.098Z,1.90
2019-01-11T14:40:46.845Z,2.83
2019-01-11T14:43:15.569Z,2.20
2019-01-11T14:45:44.277Z,2.37
2019-01-11T14:48:13.114Z,2.53
2019-01-11T14:50:41.850Z,3.03
2019-01-11T14:53:10.605Z,2.53
2019-01-11T14:55:39.404Z,1.77
2019-01-11T14:58:08.221Z,2.43
2019-01-11T15:00:37.030Z,2.20
2019-01-11T15:03:05.824Z,2.80
2019-01-11T15:05:34.676Z,1.53
2019-01-11T15:08:03.472Z,2.37
2019-01-11T15:10:32.241Z,2.37
2019-01-11T15:13:01.075Z,1.80
2019-01-11T15:15:29.813Z,1.93
2019-01-11T15:17:58.582Z,1.27
2019-01-11T15:20:27.305Z,1.40
2019-01-11T15:22:56.076Z,1.70
2019-01-11T15:25:24.864Z,1.67
2019-01-11T15:27:53.673Z,1.60
2019-01-11T15:30:22.546Z,1.10
2019-01-11T15:32:51.328Z,1.47
2019-01-11T15:35:20.313Z,1.30
2019-01-11T15:37:49.476Z,1.60
2019-01-11T15:40:21.269Z,1.60
2019-01-11T15:42:50.075Z,2.10
2019-01-11T15:45:18.810Z,1.93
2019-01-11T15:47:47.613Z,2.03
2019-01-11T15:50:35.851Z,1.83
2019-01-11T15:53:04.613Z,2.73
2019-01-11T15:55:33.323Z,1.73
2019-01-11T15:58:02.119Z,2.13
2019-01-11T16:00:30.962Z,2.20
2019-01-11T16:02:59.668Z,2.57
2019-01-11T16:05:28.387Z,3.30
2019-01-11T16:07:57.109Z,2.20
2019-01-11T16:10:26.034Z,2.50
2019-01-11T16:13:19.535Z,2.77
2019-01-11T16:16:16.471Z,4.83
2019-01-11T16:18:45.233Z,2.30
2019-01-11T16:21:14.050Z,2.10
2019-01-11T16:23:42.869Z,2.53
2019-01-11T16:26:11.667Z,2.43
2019-01-11T16:28:40.370Z,2.40
2019-01-11T16:31:09.198Z,1.57
2019-01-11T16:33:38.171Z,2.40
2019-01-11T16:36:06.985Z,2.53
2019-01-11T16:38:35.906Z,1.43
2019-01-11T16:41:05.168Z,1.70
2019-01-11T16:43:33.955Z,2.40
2019-01-11T16:46:02.810Z,2.50
2019-01-11T16:48:31.593Z,3.13
2019-01-11T16:51:00.357Z,2.67
2019-01-11T16:53:29.052Z,2.97
2019-01-11T16:55:57.838Z,4.17
2019-01-11T16:58:26.583Z,2.23
2019-01-11T17:00:55.308Z,2.30
2019-01-11T17:03:24.050Z,2.53
2019-01-11T17:05:52.865Z,3.30
2019-01-11T17:08:21.617Z,1.70
2019-01-11T17:10:50.481Z,1.60
2019-01-11T17:13:19.201Z,2.13
2019-01-11T17:15:48.069Z,1.90
2019-01-11T17:18:16.873Z,2.13
2019-01-11T17:20:45.621Z,3.07
2019-01-11T17:23:14.533Z,3.60
2019-01-11T17:25:43.313Z,3.53
2019-01-11T17:28:12.024Z,2.87
2019-01-11T17:30:40.841Z,3.93
2019-01-11T17:33:09.705Z,2.70
2019-01-11T17:35:38.485Z,2.37
2019-01-11T17:38:07.297Z,2.20
2019-01-11T17:40:36.097Z,2.20
2019-01-11T17:43:04.899Z,2.37
2019-01-11T17:45:33.613Z,2.57
2019-01-11T17:48:02.525Z,1.87
2019-01-11T17:50:31.397Z,1.60
2019-01-11T17:53:00.269Z,2.43
2019-01-11T17:55:29.095Z,2.10
2019-01-11T17:57:57.845Z,1.87
2019-01-11T18:00:26.841Z,2.23
2019-01-11T18:02:55.602Z,2.10
2019-01-11T18:05:24.330Z,2.03
2019-01-11T18:07:53.118Z,1.33
2019-01-11T18:10:21.864Z,1.70
2019-01-11T18:12:50.590Z,1.67
2019-01-11T18:15:21.421Z,2.00
2019-01-11T18:17:50.442Z,2.10
2019-01-11T18:20:21.788Z,2.23
2019-01-11T18:22:50.666Z,2.23
2019-01-11T18:25:19.495Z,2.40
2019-01-11T18:27:48.281Z,1.90
2019-01-11T18:30:17.177Z,1.80
2019-01-11T18:32:46.181Z,3.20
2019-01-11T18:35:15.109Z,2.07
2019-01-11T18:37:44.405Z,1.97
2019-01-11T18:40:16.383Z,1.97
2019-01-11T18:42:45.194Z,2.37
2019-01-11T18:45:14.267Z,2.33
2019-01-11T18:47:43.198Z,2.70
2019-01-11T18:50:14.916Z,2.40
2019-01-11T18:52:43.794Z,2.17
2019-01-11T18:55:13.041Z,2.20
2019-01-11T18:57:41.770Z,2.23
2019-01-11T19:00:16.445Z,2.40
2019-01-11T19:02:45.281Z,3.30
2019-01-11T19:05:14.517Z,3.33
2019-01-11T19:07:46.203Z,4.43
2019-01-11T19:10:15.661Z,3.37
2019-01-11T19:12:44.706Z,2.73
2019-01-11T19:15:16.235Z,2.67
2019-01-11T19:17:45.167Z,2.70
2019-01-11T19:20:22.501Z,2.20
2019-01-11T19:22:51.421Z,2.40
2019-01-11T19:25:20.491Z,2.90
2019-01-11T19:27:50.025Z,2.47
2019-01-11T19:30:21.036Z,1.57
2019-01-11T19:32:49.949Z,2.03
2019-01-11T19:35:18.689Z,1.77
2019-01-11T19:37:47.598Z,1.70
2019-01-11T19:40:16.508Z,1.70
2019-01-11T19:42:45.329Z,1.60
2019-01-11T19:45:14.157Z,1.30
2019-01-11T19:47:43.054Z,1.43
2019-01-11T19:50:17.682Z,1.10
2019-01-11T19:52:46.719Z,1.73
2019-01-11T19:55:15.894Z,1.30
2019-01-11T19:57:45.106Z,1.57
2019-01-11T20:00:25.930Z,1.20
2019-01-11T20:02:57.113Z,1.20
2019-01-11T20:05:26.641Z,1.57
2019-01-11T20:07:57.139Z,1.50
2019-01-11T20:10:28.669Z,1.40
2019-01-11T20:12:57.457Z,1.60
2019-01-11T20:15:26.257Z,1.20
2019-01-11T20:17:55.105Z,1.90
2019-01-11T20:20:26.306Z,1.30
2019-01-11T20:23:02.202Z,1.80
2019-01-11T20:25:26.526Z,3.03
2019-01-11T20:27:55.610Z,1.80
2019-01-11T20:30:28.157Z,1.70
2019-01-11T20:32:57.030Z,1.70
2019-01-11T20:35:25.933Z,1.97
2019-01-11T20:37:54.861Z,1.93
2019-01-11T20:40:23.742Z,2.13
2019-01-11T20:42:52.534Z,1.80
2019-01-11T20:45:22.227Z,2.07
2019-01-11T20:47:51.102Z,1.80
2019-01-11T20:50:26.033Z,1.90
2019-01-11T20:52:55.677Z,1.93
2019-01-11T20:55:24.557Z,1.90
2019-01-11T20:57:53.885Z,2.40
2019-01-11T21:00:28.606Z,2.23
2019-01-11T21:02:57.422Z,1.70
2019-01-11T21:05:26.913Z,2.00
2019-01-11T21:07:55.718Z,2.00
2019-01-11T21:10:24.609Z,2.03
2019-01-11T21:12:53.418Z,1.90
2019-01-11T21:15:22.462Z,1.80
2019-01-11T21:17:51.659Z,2.27
2019-01-11T21:20:20.693Z,1.40
2019-01-11T21:22:49.575Z,1.93
2019-01-11T21:25:21.523Z,1.83
2019-01-11T21:27:50.337Z,1.63
2019-01-11T21:30:24.297Z,1.60
2019-01-11T21:32:53.264Z,2.03
2019-01-11T21:35:22.259Z,2.23
2019-01-11T21:37:51.092Z,1.83
2019-01-11T21:40:20.396Z,1.30
2019-01-11T21:42:49.421Z,2.00
2019-01-11T21:45:19.121Z,1.73
2019-01-11T21:47:48.606Z,1.77
2019-01-11T21:50:19.706Z,1.40
2019-01-11T21:52:48.625Z,1.77
2019-01-11T21:55:17.718Z,1.20
2019-01-11T21:57:46.773Z,3.37
2019-01-11T22:00:27.293Z,2.27
2019-01-11T22:02:56.210Z,1.47
2019-01-11T22:05:25.036Z,1.80
2019-01-11T22:07:54.195Z,1.97
2019-01-11T22:10:42.198Z,1.60
2019-01-11T22:13:11.016Z,2.30
2019-01-11T22:15:39.786Z,2.83
2019-01-11T22:18:08.511Z,2.70
2019-01-11T22:20:37.471Z,2.77
2019-01-11T22:23:09.269Z,2.63
2019-01-11T22:25:38.639Z,2.80
2019-01-11T22:28:07.514Z,2.90
2019-01-11T22:30:39.312Z,2.93
2019-01-11T22:33:08.161Z,2.83
2019-01-11T22:35:37.026Z,3.27
2019-01-11T22:38:06.077Z,2.53
2019-01-11T22:40:34.825Z,2.77
2019-01-11T22:43:03.734Z,2.83
2019-01-11T22:45:32.557Z,3.47
2019-01-11T22:48:01.260Z,3.57
2019-01-11T22:50:30.185Z,3.83
2019-01-11T22:52:59.182Z,3.27
2019-01-11T22:55:27.938Z,2.80
2019-01-11T22:57:56.725Z,2.87
2019-01-11T23:00:43.671Z,3.80
2019-01-11T23:03:16.069Z,2.53
2019-01-11T23:05:44.802Z,2.50
2019-01-11T23:08:19.852Z,2.03
2019-01-11T23:11:32.015Z,2.57
2019-01-11T23:14:00.745Z,1.80
2019-01-11T23:16:44.318Z,1.93
2019-01-11T23:19:13.021Z,1.80
2019-01-11T23:21:41.771Z,1.33
2019-01-11T23:24:17.169Z,2.00
2019-01-11T23:26:40.921Z,1.30
2019-01-11T23:29:09.734Z,1.40
2019-01-11T23:31:38.730Z,1.73
2019-01-11T23:34:07.454Z,2.30
2019-01-11T23:36:36.181Z,2.40
2019-01-11T23:39:07.469Z,2.50
2019-01-11T23:41:36.185Z,2.83
2019-01-11T23:44:04.985Z,3.23
2019-01-11T23:46:33.723Z,3.50
2019-01-11T23:49:02.584Z,3.97
2019-01-11T23:51:31.392Z,3.13
2019-01-11T23:54:00.201Z,3.60
2019-01-11T23:56:28.924Z,3.60
2019-01-11T23:58:57.650Z,2.80
